sensor_id;sensor_type;location;lat;lon;timestamp;P1;durP1;ratioP1;P2;durP2;ratioP2
22949;SDS011;11641;51.018;4.474;2023-02-07T00:01:13;38.42;;;12.82;;
22949;SDS011;11641;51.018;4.474;2023-02-07T00:03:41;51.20;;;13.30;;
22949;SDS011;11641;51.018;4.474;2023-02-07T00:06:09;29.92;;;11.98;;
22949;SDS011;11641;51.018;4.474;2023-02-07T00:08:37;35.80;;;13.13;;
22949;SDS011;11641;51.018;4.474;2023-02-07T00:11:07;41.38;;;12.68;;
22949;SDS011;11641;51.018;4.474;2023-02-07T00:13:35;32.40;;;12.85;;
22949;SDS011;11641;51.018;4.474;2023-02-07T00:16:03;34.45;;;12.50;;
22949;SDS011;11641;51.018;4.474;2023-02-07T00:18:30;38.75;;;13.70;;
22949;SDS011;11641;51.018;4.474;2023-02-07T00:21:03;38.97;;;13.23;;
22949;SDS011;11641;51.018;4.474;2023-02-07T00:23:30;26.02;;;12.93;;
22949;SDS011;11641;51.018;4.474;2023-02-07T00:25:56;38.42;;;13.63;;
22949;SDS011;11641;51.018;4.474;2023-02-07T00:28:22;32.10;;;12.30;;
22949;SDS011;11641;51.018;4.474;2023-02-07T00:30:48;41.38;;;13.55;;
22949;SDS011;11641;51.018;4.474;2023-02-07T00:33:25;33.35;;;13.10;;
22949;SDS011;11641;51.018;4.474;2023-02-07T00:35:58;38.05;;;13.23;;
22949;SDS011;11641;51.018;4.474;2023-02-07T00:38:25;36.78;;;12.90;;
22949;SDS011;11641;51.018;4.474;2023-02-07T00:40:51;39.83;;;13.95;;
22949;SDS011;11641;51.018;4.474;2023-02-07T00:43:17;29.92;;;13.18;;
22949;SDS011;11641;51.018;4.474;2023-02-07T00:45:42;41.65;;;13.80;;
22949;SDS011;11641;51.018;4.474;2023-02-07T00:48:08;42.88;;;13.32;;
22949;SDS011;11641;51.018;4.474;2023-02-07T00:50:34;43.25;;;13.90;;
22949;SDS011;11641;51.018;4.474;2023-02-07T00:52:59;38.10;;;13.43;;
22949;SDS011;11641;51.018;4.474;2023-02-07T00:55:25;38.53;;;13.57;;
22949;SDS011;11641;51.018;4.474;2023-02-07T00:57:51;44.17;;;15.07;;
22949;SDS011;11641;51.018;4.474;2023-02-07T01:00:16;41.20;;;14.82;;
22949;SDS011;11641;51.018;4.474;2023-02-07T01:02:42;45.10;;;14.13;;
22949;SDS011;11641;51.018;4.474;2023-02-07T01:05:10;43.72;;;14.75;;
22949;SDS011;11641;51.018;4.474;2023-02-07T01:07:37;36.58;;;13.70;;
22949;SDS011;11641;51.018;4.474;2023-02-07T01:10:03;46.92;;;14.75;;
22949;SDS011;11641;51.018;4.474;2023-02-07T01:12:29;47.42;;;15.15;;
22949;SDS011;11641;51.018;4.474;2023-02-07T01:14:55;36.40;;;14.05;;
22949;SDS011;11641;51.018;4.474;2023-02-07T01:17:22;39.13;;;14.55;;
22949;SDS011;11641;51.018;4.474;2023-02-07T01:19:48;46.15;;;14.55;;
22949;SDS011;11641;51.018;4.474;2023-02-07T01:22:19;34.67;;;14.18;;
22949;SDS011;11641;51.018;4.474;2023-02-07T01:24:45;35.75;;;13.93;;
22949;SDS011;11641;51.018;4.474;2023-02-07T01:27:11;43.15;;;15.48;;
22949;SDS011;11641;51.018;4.474;2023-02-07T01:29:36;38.35;;;15.05;;
22949;SDS011;11641;51.018;4.474;2023-02-07T01:32:02;32.30;;;14.20;;
22949;SDS011;11641;51.018;4.474;2023-02-07T01:34:31;34.28;;;14.80;;
22949;SDS011;11641;51.018;4.474;2023-02-07T01:36:56;39.00;;;14.38;;
22949;SDS011;11641;51.018;4.474;2023-02-07T01:39:24;40.10;;;14.57;;
22949;SDS011;11641;51.018;4.474;2023-02-07T01:41:50;41.08;;;14.18;;
22949;SDS011;11641;51.018;4.474;2023-02-07T01:46:48;41.20;;;14.95;;
22949;SDS011;11641;51.018;4.474;2023-02-07T01:49:15;36.25;;;15.07;;
22949;SDS011;11641;51.018;4.474;2023-02-07T01:51:46;35.45;;;15.02;;
22949;SDS011;11641;51.018;4.474;2023-02-07T01:54:16;39.13;;;14.52;;
22949;SDS011;11641;51.018;4.474;2023-02-07T01:56:44;45.22;;;16.27;;
22949;SDS011;11641;51.018;4.474;2023-02-07T01:59:12;38.70;;;15.90;;
22949;SDS011;11641;51.018;4.474;2023-02-07T02:01:39;36.47;;;15.65;;
22949;SDS011;11641;51.018;4.474;2023-02-07T02:04:06;46.10;;;16.40;;
22949;SDS011;11641;51.018;4.474;2023-02-07T02:06:32;42.25;;;16.77;;
22949;SDS011;11641;51.018;4.474;2023-02-07T02:09:01;39.28;;;15.25;;
22949;SDS011;11641;51.018;4.474;2023-02-07T02:25:35;47.00;;;16.85;;
22949;SDS011;11641;51.018;4.474;2023-02-07T02:41:57;41.53;;;17.63;;
22949;SDS011;11641;51.018;4.474;2023-02-07T02:44:37;38.50;;;17.20;;
22949;SDS011;11641;51.018;4.474;2023-02-07T02:47:18;43.95;;;17.77;;
22949;SDS011;11641;51.018;4.474;2023-02-07T02:49:47;41.42;;;19.17;;
22949;SDS011;11641;51.018;4.474;2023-02-07T02:52:13;45.33;;;17.20;;
22949;SDS011;11641;51.018;4.474;2023-02-07T02:54:39;46.45;;;18.33;;
22949;SDS011;11641;51.018;4.474;2023-02-07T03:13:27;41.75;;;17.98;;
22949;SDS011;11641;51.018;4.474;2023-02-07T03:15:58;46.17;;;17.60;;
22949;SDS011;11641;51.018;4.474;2023-02-07T03:19:00;49.90;;;19.00;;
22949;SDS011;11641;51.018;4.474;2023-02-07T03:21:39;40.47;;;17.80;;
22949;SDS011;11641;51.018;4.474;2023-02-07T03:24:13;56.13;;;18.75;;
22949;SDS011;11641;51.018;4.474;2023-02-07T03:26:45;45.72;;;18.83;;
22949;SDS011;11641;51.018;4.474;2023-02-07T03:29:15;54.22;;;19.65;;
22949;SDS011;11641;51.018;4.474;2023-02-07T03:31:44;47.08;;;18.13;;
22949;SDS011;11641;51.018;4.474;2023-02-07T03:34:26;51.92;;;19.60;;
22949;SDS011;11641;51.018;4.474;2023-02-07T03:37:15;49.67;;;18.80;;
22949;SDS011;11641;51.018;4.474;2023-02-07T03:39:46;41.70;;;17.58;;
22949;SDS011;11641;51.018;4.474;2023-02-07T03:42:14;46.03;;;18.60;;
22949;SDS011;11641;51.018;4.474;2023-02-07T03:45:01;42.70;;;18.35;;
22949;SDS011;11641;51.018;4.474;2023-02-07T03:47:28;46.97;;;19.20;;
22949;SDS011;11641;51.018;4.474;2023-02-07T03:49:53;53.78;;;19.50;;
22949;SDS011;11641;51.018;4.474;2023-02-07T03:52:22;43.88;;;18.75;;
22949;SDS011;11641;51.018;4.474;2023-02-07T03:54:47;45.15;;;19.05;;
22949;SDS011;11641;51.018;4.474;2023-02-07T03:57:13;44.83;;;18.13;;
22949;SDS011;11641;51.018;4.474;2023-02-07T03:59:39;44.85;;;18.60;;
22949;SDS011;11641;51.018;4.474;2023-02-07T04:02:05;56.50;;;19.90;;
22949;SDS011;11641;51.018;4.474;2023-02-07T04:04:30;48.25;;;19.77;;
22949;SDS011;11641;51.018;4.474;2023-02-07T04:06:56;48.53;;;20.58;;
22949;SDS011;11641;51.018;4.474;2023-02-07T04:09:24;51.75;;;20.63;;
22949;SDS011;11641;51.018;4.474;2023-02-07T04:11:50;49.05;;;21.17;;
22949;SDS011;11641;51.018;4.474;2023-02-07T04:14:16;57.15;;;21.30;;
22949;SDS011;11641;51.018;4.474;2023-02-07T04:16:44;52.67;;;21.52;;
22949;SDS011;11641;51.018;4.474;2023-02-07T04:19:11;56.40;;;22.13;;
22949;SDS011;11641;51.018;4.474;2023-02-07T04:21:39;48.92;;;20.48;;
22949;SDS011;11641;51.018;4.474;2023-02-07T04:24:05;52.58;;;21.35;;
22949;SDS011;11641;51.018;4.474;2023-02-07T04:26:30;57.25;;;20.77;;
22949;SDS011;11641;51.018;4.474;2023-02-07T04:28:56;48.60;;;19.92;;
22949;SDS011;11641;51.018;4.474;2023-02-07T04:31:22;49.90;;;21.33;;
22949;SDS011;11641;51.018;4.474;2023-02-07T04:33:48;53.35;;;21.58;;
22949;SDS011;11641;51.018;4.474;2023-02-07T04:36:13;62.22;;;22.40;;
22949;SDS011;11641;51.018;4.474;2023-02-07T04:38:41;57.33;;;21.73;;
22949;SDS011;11641;51.018;4.474;2023-02-07T04:41:07;58.63;;;23.42;;
22949;SDS011;11641;51.018;4.474;2023-02-07T04:43:35;54.22;;;21.60;;
22949;SDS011;11641;51.018;4.474;2023-02-07T04:46:02;59.28;;;22.50;;
22949;SDS011;11641;51.018;4.474;2023-02-07T04:48:28;52.22;;;20.52;;
22949;SDS011;11641;51.018;4.474;2023-02-07T04:50:55;52.58;;;21.73;;
22949;SDS011;11641;51.018;4.474;2023-02-07T04:53:20;56.88;;;21.48;;
22949;SDS011;11641;51.018;4.474;2023-02-07T04:55:49;59.45;;;21.10;;
22949;SDS011;11641;51.018;4.474;2023-02-07T04:58:18;54.88;;;21.55;;
22949;SDS011;11641;51.018;4.474;2023-02-07T05:00:47;49.67;;;20.70;;
22949;SDS011;11641;51.018;4.474;2023-02-07T05:03:13;51.70;;;20.55;;
22949;SDS011;11641;51.018;4.474;2023-02-07T05:05:39;61.65;;;22.50;;
22949;SDS011;11641;51.018;4.474;2023-02-07T05:08:06;52.90;;;22.10;;
22949;SDS011;11641;51.018;4.474;2023-02-07T05:10:33;52.30;;;21.23;;
22949;SDS011;11641;51.018;4.474;2023-02-07T05:12:59;56.15;;;22.23;;
22949;SDS011;11641;51.018;4.474;2023-02-07T05:15:25;52.92;;;22.33;;
22949;SDS011;11641;51.018;4.474;2023-02-07T05:17:50;55.67;;;22.73;;
22949;SDS011;11641;51.018;4.474;2023-02-07T05:20:17;50.13;;;21.38;;
22949;SDS011;11641;51.018;4.474;2023-02-07T05:22:45;48.00;;;21.58;;
22949;SDS011;11641;51.018;4.474;2023-02-07T05:25:11;56.20;;;21.13;;
22949;SDS011;11641;51.018;4.474;2023-02-07T05:27:37;46.13;;;20.30;;
22949;SDS011;11641;51.018;4.474;2023-02-07T05:30:04;52.60;;;21.58;;
22949;SDS011;11641;51.018;4.474;2023-02-07T05:32:30;54.97;;;22.27;;
22949;SDS011;11641;51.018;4.474;2023-02-07T05:35:14;55.47;;;21.58;;
22949;SDS011;11641;51.018;4.474;2023-02-07T05:37:40;52.15;;;22.35;;
22949;SDS011;11641;51.018;4.474;2023-02-07T05:40:06;54.05;;;23.40;;
22949;SDS011;11641;51.018;4.474;2023-02-07T05:42:33;64.60;;;24.20;;
22949;SDS011;11641;51.018;4.474;2023-02-07T05:44:59;52.95;;;22.20;;
22949;SDS011;11641;51.018;4.474;2023-02-07T05:47:24;58.85;;;23.08;;
22949;SDS011;11641;51.018;4.474;2023-02-07T05:49:50;49.85;;;20.95;;
22949;SDS011;11641;51.018;4.474;2023-02-07T05:52:16;48.03;;;21.42;;
22949;SDS011;11641;51.018;4.474;2023-02-07T05:54:41;46.60;;;21.80;;
22949;SDS011;11641;51.018;4.474;2023-02-07T05:57:07;47.83;;;19.92;;
22949;SDS011;11641;51.018;4.474;2023-02-07T05:59:33;54.42;;;21.60;;
22949;SDS011;11641;51.018;4.474;2023-02-07T06:01:58;48.00;;;21.05;;
22949;SDS011;11641;51.018;4.474;2023-02-07T06:04:25;45.20;;;20.80;;
22949;SDS011;11641;51.018;4.474;2023-02-07T06:06:53;47.88;;;20.42;;
22949;SDS011;11641;51.018;4.474;2023-02-07T06:09:19;52.60;;;21.75;;
22949;SDS011;11641;51.018;4.474;2023-02-07T06:11:45;56.20;;;21.15;;
22949;SDS011;11641;51.018;4.474;2023-02-07T06:14:11;41.83;;;19.88;;
22949;SDS011;11641;51.018;4.474;2023-02-07T06:16:36;52.67;;;21.63;;
22949;SDS011;11641;51.018;4.474;2023-02-07T06:19:05;47.10;;;20.85;;
22949;SDS011;11641;51.018;4.474;2023-02-07T06:21:30;44.10;;;20.60;;
22949;SDS011;11641;51.018;4.474;2023-02-07T06:23:58;47.70;;;19.38;;
22949;SDS011;11641;51.018;4.474;2023-02-07T06:26:24;42.30;;;20.55;;
22949;SDS011;11641;51.018;4.474;2023-02-07T06:28:49;41.92;;;19.38;;
22949;SDS011;11641;51.018;4.474;2023-02-07T06:31:15;42.90;;;19.83;;
22949;SDS011;11641;51.018;4.474;2023-02-07T06:33:41;45.95;;;20.02;;
22949;SDS011;11641;51.018;4.474;2023-02-07T06:36:06;43.97;;;19.00;;
22949;SDS011;11641;51.018;4.474;2023-02-07T06:38:32;37.88;;;19.63;;
22949;SDS011;11641;51.018;4.474;2023-02-07T06:41:00;44.03;;;19.90;;
22949;SDS011;11641;51.018;4.474;2023-02-07T06:43:26;42.47;;;20.17;;
22949;SDS011;11641;51.018;4.474;2023-02-07T06:45:51;43.08;;;20.38;;
22949;SDS011;11641;51.018;4.474;2023-02-07T06:48:17;49.75;;;20.20;;
22949;SDS011;11641;51.018;4.474;2023-02-07T06:50:43;43.13;;;20.30;;
22949;SDS011;11641;51.018;4.474;2023-02-07T06:53:08;48.53;;;21.35;;
22949;SDS011;11641;51.018;4.474;2023-02-07T06:55:35;50.13;;;21.60;;
22949;SDS011;11641;51.018;4.474;2023-02-07T06:58:03;62.95;;;22.60;;
22949;SDS011;11641;51.018;4.474;2023-02-07T07:00:30;52.40;;;22.92;;
22949;SDS011;11641;51.018;4.474;2023-02-07T07:02:56;62.25;;;23.90;;
22949;SDS011;11641;51.018;4.474;2023-02-07T07:05:24;84.88;;;23.00;;
22949;SDS011;11641;51.018;4.474;2023-02-07T07:07:53;90.20;;;23.20;;
22949;SDS011;11641;51.018;4.474;2023-02-07T07:10:20;89.07;;;23.67;;
22949;SDS011;11641;51.018;4.474;2023-02-07T07:12:46;104.53;;;23.58;;
22949;SDS011;11641;51.018;4.474;2023-02-07T07:15:11;94.72;;;24.30;;
22949;SDS011;11641;51.018;4.474;2023-02-07T07:17:37;66.35;;;21.65;;
22949;SDS011;11641;51.018;4.474;2023-02-07T07:20:03;102.88;;;23.95;;
22949;SDS011;11641;51.018;4.474;2023-02-07T07:22:31;56.00;;;21.52;;
22949;SDS011;11641;51.018;4.474;2023-02-07T07:24:57;67.10;;;21.50;;
22949;SDS011;11641;51.018;4.474;2023-02-07T07:27:24;79.35;;;22.42;;
22949;SDS011;11641;51.018;4.474;2023-02-07T07:29:52;81.53;;;22.40;;
22949;SDS011;11641;51.018;4.474;2023-02-07T07:32:18;90.07;;;22.73;;
22949;SDS011;11641;51.018;4.474;2023-02-07T07:34:44;122.50;;;24.13;;
22949;SDS011;11641;51.018;4.474;2023-02-07T07:37:12;89.85;;;21.77;;
22949;SDS011;11641;51.018;4.474;2023-02-07T07:39:38;59.60;;;20.83;;
22949;SDS011;11641;51.018;4.474;2023-02-07T07:42:04;49.63;;;21.45;;
22949;SDS011;11641;51.018;4.474;2023-02-07T07:44:29;55.00;;;21.00;;
22949;SDS011;11641;51.018;4.474;2023-02-07T07:46:55;53.80;;;21.45;;
22949;SDS011;11641;51.018;4.474;2023-02-07T07:49:20;59.35;;;22.02;;
22949;SDS011;11641;51.018;4.474;2023-02-07T07:51:51;60.90;;;22.58;;
22949;SDS011;11641;51.018;4.474;2023-02-07T07:54:17;51.78;;;22.27;;
22949;SDS011;11641;51.018;4.474;2023-02-07T07:56:43;55.83;;;21.88;;
22949;SDS011;11641;51.018;4.474;2023-02-07T07:59:08;58.55;;;20.80;;
22949;SDS011;11641;51.018;4.474;2023-02-07T08:01:34;54.67;;;20.63;;
22949;SDS011;11641;51.018;4.474;2023-02-07T08:04:02;51.95;;;20.90;;
22949;SDS011;11641;51.018;4.474;2023-02-07T08:06:29;54.30;;;21.67;;
22949;SDS011;11641;51.018;4.474;2023-02-07T08:08:55;60.60;;;20.23;;
22949;SDS011;11641;51.018;4.474;2023-02-07T08:11:21;51.00;;;19.67;;
22949;SDS011;11641;51.018;4.474;2023-02-07T08:13:47;41.58;;;20.23;;
22949;SDS011;11641;51.018;4.474;2023-02-07T08:16:14;50.53;;;20.65;;
22949;SDS011;11641;51.018;4.474;2023-02-07T08:18:40;44.97;;;20.02;;
22949;SDS011;11641;51.018;4.474;2023-02-07T08:21:06;51.92;;;20.52;;
22949;SDS011;11641;51.018;4.474;2023-02-07T08:23:32;49.05;;;20.15;;
22949;SDS011;11641;51.018;4.474;2023-02-07T08:26:01;46.63;;;20.00;;
22949;SDS011;11641;51.018;4.474;2023-02-07T08:28:29;56.45;;;21.13;;
22949;SDS011;11641;51.018;4.474;2023-02-07T08:30:59;51.97;;;20.75;;
22949;SDS011;11641;51.018;4.474;2023-02-07T08:33:26;53.95;;;21.20;;
22949;SDS011;11641;51.018;4.474;2023-02-07T08:35:51;43.75;;;20.15;;
22949;SDS011;11641;51.018;4.474;2023-02-07T08:38:17;44.75;;;21.48;;
22949;SDS011;11641;51.018;4.474;2023-02-07T08:40:45;49.95;;;21.30;;
22949;SDS011;11641;51.018;4.474;2023-02-07T08:43:11;53.15;;;21.90;;
22949;SDS011;11641;51.018;4.474;2023-02-07T08:45:38;49.28;;;22.95;;
22949;SDS011;11641;51.018;4.474;2023-02-07T08:48:04;48.78;;;22.85;;
22949;SDS011;11641;51.018;4.474;2023-02-07T08:50:32;49.10;;;23.33;;
22949;SDS011;11641;51.018;4.474;2023-02-07T08:52:58;49.33;;;21.90;;
22949;SDS011;11641;51.018;4.474;2023-02-07T08:55:26;43.65;;;20.50;;
22949;SDS011;11641;51.018;4.474;2023-02-07T08:57:51;48.42;;;21.75;;
22949;SDS011;11641;51.018;4.474;2023-02-07T09:00:17;45.85;;;22.13;;
22949;SDS011;11641;51.018;4.474;2023-02-07T09:02:43;51.70;;;23.20;;
22949;SDS011;11641;51.018;4.474;2023-02-07T09:05:09;47.60;;;20.88;;
22949;SDS011;11641;51.018;4.474;2023-02-07T09:07:35;46.40;;;22.23;;
22949;SDS011;11641;51.018;4.474;2023-02-07T09:10:01;43.42;;;22.38;;
22949;SDS011;11641;51.018;4.474;2023-02-07T09:12:29;37.55;;;20.75;;
22949;SDS011;11641;51.018;4.474;2023-02-07T09:14:55;39.75;;;20.63;;
22949;SDS011;11641;51.018;4.474;2023-02-07T09:17:21;39.17;;;20.65;;
22949;SDS011;11641;51.018;4.474;2023-02-07T09:19:46;42.20;;;20.17;;
22949;SDS011;11641;51.018;4.474;2023-02-07T09:22:12;36.90;;;19.70;;
22949;SDS011;11641;51.018;4.474;2023-02-07T09:24:38;39.95;;;20.55;;
22949;SDS011;11641;51.018;4.474;2023-02-07T09:27:06;36.22;;;19.38;;
22949;SDS011;11641;51.018;4.474;2023-02-07T09:29:31;31.23;;;18.67;;
22949;SDS011;11641;51.018;4.474;2023-02-07T09:31:59;32.13;;;18.10;;
22949;SDS011;11641;51.018;4.474;2023-02-07T09:34:25;36.72;;;19.13;;
22949;SDS011;11641;51.018;4.474;2023-02-07T09:36:51;33.25;;;19.13;;
22949;SDS011;11641;51.018;4.474;2023-02-07T09:39:17;33.67;;;17.85;;
22949;SDS011;11641;51.018;4.474;2023-02-07T09:49:36;28.92;;;14.90;;
22949;SDS011;11641;51.018;4.474;2023-02-07T09:52:18;26.05;;;15.13;;
22949;SDS011;11641;51.018;4.474;2023-02-07T09:54:50;26.10;;;15.10;;
22949;SDS011;11641;51.018;4.474;2023-02-07T10:00:17;26.35;;;13.20;;
22949;SDS011;11641;51.018;4.474;2023-02-07T10:05:30;25.73;;;13.13;;
22949;SDS011;11641;51.018;4.474;2023-02-07T10:08:01;20.20;;;13.05;;
22949;SDS011;11641;51.018;4.474;2023-02-07T10:10:30;21.80;;;12.15;;
22949;SDS011;11641;51.018;4.474;2023-02-07T10:20:56;20.83;;;12.80;;
22949;SDS011;11641;51.018;4.474;2023-02-07T10:23:39;14.85;;;11.35;;
22949;SDS011;11641;51.018;4.474;2023-02-07T10:29:16;23.85;;;13.50;;
22949;SDS011;11641;51.018;4.474;2023-02-07T10:32:09;19.77;;;12.65;;
22949;SDS011;11641;51.018;4.474;2023-02-07T10:35:00;16.50;;;11.80;;
22949;SDS011;11641;51.018;4.474;2023-02-07T10:37:40;20.70;;;11.38;;
22949;SDS011;11641;51.018;4.474;2023-02-07T10:40:14;16.58;;;10.80;;
22949;SDS011;11641;51.018;4.474;2023-02-07T10:42:52;22.00;;;11.02;;
22949;SDS011;11641;51.018;4.474;2023-02-07T10:45:26;17.45;;;11.55;;
22949;SDS011;11641;51.018;4.474;2023-02-07T10:47:52;17.05;;;11.20;;
22949;SDS011;11641;51.018;4.474;2023-02-07T10:50:20;21.98;;;11.38;;
22949;SDS011;11641;51.018;4.474;2023-02-07T10:55:39;17.90;;;10.60;;
22949;SDS011;11641;51.018;4.474;2023-02-07T10:58:14;16.63;;;10.13;;
22949;SDS011;11641;51.018;4.474;2023-02-07T11:00:44;14.68;;;9.68;;
22949;SDS011;11641;51.018;4.474;2023-02-07T11:03:13;14.02;;;9.85;;
22949;SDS011;11641;51.018;4.474;2023-02-07T11:08:27;16.20;;;9.55;;
22949;SDS011;11641;51.018;4.474;2023-02-07T11:10:55;14.50;;;8.63;;
22949;SDS011;11641;51.018;4.474;2023-02-07T11:13:27;13.95;;;8.43;;
22949;SDS011;11641;51.018;4.474;2023-02-07T11:15:56;10.25;;;6.68;;
22949;SDS011;11641;51.018;4.474;2023-02-07T11:21:26;12.07;;;7.25;;
22949;SDS011;11641;51.018;4.474;2023-02-07T11:23:52;9.93;;;7.45;;
22949;SDS011;11641;51.018;4.474;2023-02-07T11:26:23;10.63;;;6.72;;
22949;SDS011;11641;51.018;4.474;2023-02-07T11:28:53;9.70;;;6.70;;
22949;SDS011;11641;51.018;4.474;2023-02-07T11:31:28;10.10;;;6.75;;
22949;SDS011;11641;51.018;4.474;2023-02-07T11:34:06;11.88;;;7.43;;
22949;SDS011;11641;51.018;4.474;2023-02-07T11:36:36;11.27;;;6.55;;
22949;SDS011;11641;51.018;4.474;2023-02-07T11:39:03;9.68;;;6.60;;
22949;SDS011;11641;51.018;4.474;2023-02-07T11:41:39;9.85;;;6.30;;
22949;SDS011;11641;51.018;4.474;2023-02-07T11:44:14;10.20;;;6.32;;
22949;SDS011;11641;51.018;4.474;2023-02-07T11:46:42;10.18;;;6.07;;
22949;SDS011;11641;51.018;4.474;2023-02-07T11:49:20;8.82;;;5.93;;
22949;SDS011;11641;51.018;4.474;2023-02-07T11:51:50;10.15;;;6.70;;
22949;SDS011;11641;51.018;4.474;2023-02-07T11:54:22;9.80;;;6.97;;
22949;SDS011;11641;51.018;4.474;2023-02-07T11:56:51;10.50;;;7.85;;
22949;SDS011;11641;51.018;4.474;2023-02-07T11:59:25;11.35;;;7.72;;
22949;SDS011;11641;51.018;4.474;2023-02-07T12:01:57;15.70;;;9.00;;
22949;SDS011;11641;51.018;4.474;2023-02-07T12:04:31;15.30;;;8.55;;
22949;SDS011;11641;51.018;4.474;2023-02-07T12:07:10;13.05;;;8.07;;
22949;SDS011;11641;51.018;4.474;2023-02-07T12:10:05;10.77;;;8.13;;
22949;SDS011;11641;51.018;4.474;2023-02-07T12:12:42;12.20;;;7.55;;
22949;SDS011;11641;51.018;4.474;2023-02-07T12:15:22;10.05;;;6.97;;
22949;SDS011;11641;51.018;4.474;2023-02-07T12:18:02;10.10;;;7.00;;
22949;SDS011;11641;51.018;4.474;2023-02-07T12:21:32;11.82;;;7.00;;
22949;SDS011;11641;51.018;4.474;2023-02-07T12:23:55;11.05;;;6.68;;
22949;SDS011;11641;51.018;4.474;2023-02-07T12:26:28;10.95;;;7.03;;
22949;SDS011;11641;51.018;4.474;2023-02-07T12:34:28;9.93;;;6.53;;
22949;SDS011;11641;51.018;4.474;2023-02-07T12:37:27;9.15;;;5.88;;
22949;SDS011;11641;51.018;4.474;2023-02-07T12:42:58;9.20;;;5.70;;
22949;SDS011;11641;51.018;4.474;2023-02-07T12:48:43;8.15;;;5.28;;
22949;SDS011;11641;51.018;4.474;2023-02-07T12:57:11;11.23;;;5.63;;
22949;SDS011;11641;51.018;4.474;2023-02-07T12:59:59;7.18;;;4.95;;
22949;SDS011;11641;51.018;4.474;2023-02-07T13:02:34;8.10;;;4.63;;
22949;SDS011;11641;51.018;4.474;2023-02-07T13:10:54;7.32;;;5.63;;
22949;SDS011;11641;51.018;4.474;2023-02-07T13:13:41;8.18;;;5.43;;
22949;SDS011;11641;51.018;4.474;2023-02-07T13:19:41;8.68;;;4.88;;
22949;SDS011;11641;51.018;4.474;2023-02-07T13:25:13;7.63;;;4.90;;
22949;SDS011;11641;51.018;4.474;2023-02-07T13:27:45;8.20;;;4.75;;
22949;SDS011;11641;51.018;4.474;2023-02-07T13:30:16;6.78;;;5.03;;
22949;SDS011;11641;51.018;4.474;2023-02-07T13:32:44;8.05;;;4.90;;
22949;SDS011;11641;51.018;4.474;2023-02-07T13:35:12;10.65;;;5.25;;
22949;SDS011;11641;51.018;4.474;2023-02-07T13:37:56;8.20;;;5.32;;
22949;SDS011;11641;51.018;4.474;2023-02-07T13:40:42;7.40;;;4.82;;
22949;SDS011;11641;51.018;4.474;2023-02-07T13:46:35;7.70;;;5.47;;
22949;SDS011;11641;51.018;4.474;2023-02-07T13:48:55;7.00;;;4.90;;
22949;SDS011;11641;51.018;4.474;2023-02-07T13:51:29;6.97;;;5.22;;
22949;SDS011;11641;51.018;4.474;2023-02-07T13:56:55;6.55;;;5.40;;
22949;SDS011;11641;51.018;4.474;2023-02-07T13:59:41;8.57;;;5.07;;
22949;SDS011;11641;51.018;4.474;2023-02-07T14:02:17;8.15;;;5.50;;
22949;SDS011;11641;51.018;4.474;2023-02-07T14:04:54;9.32;;;5.20;;
22949;SDS011;11641;51.018;4.474;2023-02-07T14:07:25;10.45;;;5.25;;
22949;SDS011;11641;51.018;4.474;2023-02-07T14:09:59;5.60;;;4.80;;
22949;SDS011;11641;51.018;4.474;2023-02-07T14:12:27;6.88;;;4.78;;
22949;SDS011;11641;51.018;4.474;2023-02-07T14:14:55;5.82;;;4.97;;
22949;SDS011;11641;51.018;4.474;2023-02-07T14:18:00;6.38;;;4.75;;
22949;SDS011;11641;51.018;4.474;2023-02-07T14:28:06;6.30;;;4.95;;
22949;SDS011;11641;51.018;4.474;2023-02-07T14:33:14;8.20;;;4.75;;
22949;SDS011;11641;51.018;4.474;2023-02-07T14:38:29;6.47;;;5.13;;
22949;SDS011;11641;51.018;4.474;2023-02-07T14:41:02;6.40;;;4.60;;
22949;SDS011;11641;51.018;4.474;2023-02-07T14:43:53;6.03;;;4.75;;
22949;SDS011;11641;51.018;4.474;2023-02-07T14:46:46;6.47;;;5.10;;
22949;SDS011;11641;51.018;4.474;2023-02-07T14:54:32;11.50;;;5.40;;
22949;SDS011;11641;51.018;4.474;2023-02-07T14:59:44;8.35;;;5.78;;
22949;SDS011;11641;51.018;4.474;2023-02-07T15:02:29;6.30;;;4.50;;
22949;SDS011;11641;51.018;4.474;2023-02-07T15:07:38;10.02;;;5.55;;
22949;SDS011;11641;51.018;4.474;2023-02-07T15:10:14;8.23;;;5.20;;
22949;SDS011;11641;51.018;4.474;2023-02-07T15:12:40;9.82;;;5.30;;
22949;SDS011;11641;51.018;4.474;2023-02-07T15:15:15;8.27;;;5.57;;
22949;SDS011;11641;51.018;4.474;2023-02-07T15:17:46;9.68;;;5.88;;
22949;SDS011;11641;51.018;4.474;2023-02-07T15:20:14;8.80;;;5.20;;
22949;SDS011;11641;51.018;4.474;2023-02-07T15:22:45;9.88;;;5.80;;
22949;SDS011;11641;51.018;4.474;2023-02-07T15:25:16;12.73;;;6.40;;
22949;SDS011;11641;51.018;4.474;2023-02-07T15:27:45;9.65;;;5.93;;
22949;SDS011;11641;51.018;4.474;2023-02-07T15:30:27;9.13;;;5.40;;
22949;SDS011;11641;51.018;4.474;2023-02-07T15:32:53;10.18;;;6.03;;
22949;SDS011;11641;51.018;4.474;2023-02-07T15:35:22;10.45;;;6.22;;
22949;SDS011;11641;51.018;4.474;2023-02-07T15:37:53;13.52;;;6.15;;
22949;SDS011;11641;51.018;4.474;2023-02-07T15:40:36;8.02;;;6.05;;
22949;SDS011;11641;51.018;4.474;2023-02-07T15:43:03;9.25;;;6.70;;
22949;SDS011;11641;51.018;4.474;2023-02-07T15:45:30;11.93;;;6.75;;
22949;SDS011;11641;51.018;4.474;2023-02-07T15:48:02;10.80;;;7.07;;
22949;SDS011;11641;51.018;4.474;2023-02-07T15:50:34;9.07;;;6.10;;
22949;SDS011;11641;51.018;4.474;2023-02-07T15:53:02;8.68;;;6.22;;
22949;SDS011;11641;51.018;4.474;2023-02-07T15:58:20;12.13;;;6.85;;
22949;SDS011;11641;51.018;4.474;2023-02-07T16:00:53;12.77;;;7.25;;
22949;SDS011;11641;51.018;4.474;2023-02-07T16:03:43;14.25;;;7.03;;
22949;SDS011;11641;51.018;4.474;2023-02-07T16:06:23;12.10;;;6.50;;
22949;SDS011;11641;51.018;4.474;2023-02-07T16:08:52;10.90;;;6.72;;
22949;SDS011;11641;51.018;4.474;2023-02-07T16:16:50;11.82;;;6.68;;
22949;SDS011;11641;51.018;4.474;2023-02-07T16:19:24;11.45;;;7.20;;
22949;SDS011;11641;51.018;4.474;2023-02-07T16:22:01;14.00;;;7.63;;
22949;SDS011;11641;51.018;4.474;2023-02-07T16:24:32;12.63;;;6.43;;
22949;SDS011;11641;51.018;4.474;2023-02-07T16:27:00;13.10;;;7.07;;
22949;SDS011;11641;51.018;4.474;2023-02-07T16:29:26;13.73;;;7.65;;
22949;SDS011;11641;51.018;4.474;2023-02-07T16:31:52;18.25;;;10.57;;
22949;SDS011;11641;51.018;4.474;2023-02-07T16:34:19;15.85;;;8.50;;
22949;SDS011;11641;51.018;4.474;2023-02-07T16:36:47;15.45;;;8.85;;
22949;SDS011;11641;51.018;4.474;2023-02-07T16:39:14;13.45;;;8.60;;
22949;SDS011;11641;51.018;4.474;2023-02-07T16:41:42;14.93;;;8.20;;
22949;SDS011;11641;51.018;4.474;2023-02-07T16:44:18;14.85;;;8.65;;
22949;SDS011;11641;51.018;4.474;2023-02-07T16:46:47;13.25;;;8.07;;
22949;SDS011;11641;51.018;4.474;2023-02-07T16:49:15;15.82;;;7.90;;
22949;SDS011;11641;51.018;4.474;2023-02-07T16:51:44;13.45;;;8.02;;
22949;SDS011;11641;51.018;4.474;2023-02-07T16:54:10;19.13;;;8.40;;
22949;SDS011;11641;51.018;4.474;2023-02-07T16:56:36;10.88;;;7.70;;
22949;SDS011;11641;51.018;4.474;2023-02-07T16:59:02;15.10;;;7.80;;
22949;SDS011;11641;51.018;4.474;2023-02-07T17:01:32;15.88;;;8.40;;
22949;SDS011;11641;51.018;4.474;2023-02-07T17:03:58;14.82;;;8.20;;
22949;SDS011;11641;51.018;4.474;2023-02-07T17:06:24;18.73;;;8.75;;
22949;SDS011;11641;51.018;4.474;2023-02-07T17:08:52;19.38;;;8.48;;
22949;SDS011;11641;51.018;4.474;2023-02-07T17:11:21;18.40;;;8.35;;